createdAt,value
2023-01-09T00:00:05.725Z,11.20
2023-01-09T00:03:08.589Z,11.00
2023-01-09T00:06:12.623Z,11.20
2023-01-09T00:09:15.312Z,11.68
2023-01-09T00:12:17.944Z,10.05
2023-01-09T00:15:20.687Z,10.80
2023-01-09T00:18:23.309Z,11.38
2023-01-09T00:21:27.433Z,11.10
2023-01-09T00:24:30.116Z,10.88
2023-01-09T00:27:33.647Z,11.93
2023-01-09T00:30:36.375Z,11.50
2023-01-09T00:33:42.383Z,12.25
2023-01-09T00:36:47.488Z,11.07
2023-01-09T00:39:50.553Z,11.85
2023-01-09T00:42:56.551Z,11.65
2023-01-09T00:46:00.246Z,10.80
2023-01-09T00:49:05.203Z,11.15
2023-01-09T00:52:11.857Z,11.82
2023-01-09T00:55:15.711Z,11.10
2023-01-09T00:58:19.116Z,10.23
2023-01-09T01:01:21.999Z,10.80
2023-01-09T01:04:44.381Z,10.52
2023-01-09T01:07:48.699Z,10.57
2023-01-09T01:10:51.403Z,11.00
2023-01-09T01:13:54.257Z,11.07
2023-01-09T01:16:56.911Z,10.67
2023-01-09T01:19:59.595Z,10.30
2023-01-09T01:23:03.717Z,9.63
2023-01-09T01:26:07.976Z,9.77
2023-01-09T01:29:10.623Z,9.88
2023-01-09T01:32:13.631Z,9.83
2023-01-09T01:35:16.295Z,9.77
2023-01-09T01:38:20.434Z,9.98
2023-01-09T01:41:32.255Z,9.20
2023-01-09T01:44:59.445Z,9.77
2023-01-09T01:48:05.821Z,9.43
2023-01-09T01:51:10.078Z,9.15
2023-01-09T01:54:19.906Z,9.15
2023-01-09T01:57:22.903Z,9.13
2023-01-09T02:00:29.533Z,8.63
2023-01-09T02:03:33.352Z,9.37
2023-01-09T02:06:38.644Z,9.48
2023-01-09T02:09:44.677Z,8.90
2023-01-09T02:12:47.373Z,8.88
2023-01-09T02:16:13.401Z,8.50
2023-01-09T02:19:41.259Z,8.57
2023-01-09T02:22:57.942Z,8.98
2023-01-09T02:26:52.999Z,8.45
2023-01-09T02:30:29.556Z,8.95
2023-01-09T02:33:47.474Z,8.18
2023-01-09T02:36:58.575Z,8.47
2023-01-09T02:40:09.531Z,8.18
2023-01-09T02:43:13.483Z,8.07
2023-01-09T02:46:21.342Z,8.98
2023-01-09T02:49:24.133Z,8.85
2023-01-09T02:52:39.234Z,8.60
2023-01-09T02:55:58.594Z,9.68
2023-01-09T02:59:14.293Z,9.40
2023-01-09T03:02:37.419Z,9.25
2023-01-09T03:06:05.520Z,8.75
2023-01-09T03:09:13.722Z,9.20
2023-01-09T03:12:19.486Z,9.40
2023-01-09T03:15:26.938Z,9.32
2023-01-09T03:18:32.706Z,9.00
2023-01-09T03:21:36.446Z,9.60
2023-01-09T03:24:39.038Z,9.20
2023-01-09T03:27:41.600Z,9.15
2023-01-09T03:30:44.333Z,9.98
2023-01-09T03:33:48.425Z,9.55
2023-01-09T03:36:51.086Z,8.57
2023-01-09T03:39:53.767Z,10.50
2023-01-09T03:42:56.517Z,9.65
2023-01-09T03:45:59.679Z,9.63
2023-01-09T03:49:03.782Z,9.43
2023-01-09T03:52:06.561Z,8.35
2023-01-09T03:55:09.531Z,8.70
2023-01-09T03:58:12.187Z,9.70
2023-01-09T04:01:15.088Z,9.52
2023-01-09T04:04:19.234Z,9.60
2023-01-09T04:07:21.898Z,9.13
2023-01-09T04:10:24.597Z,9.77
2023-01-09T04:13:27.296Z,9.77
2023-01-09T04:16:30.083Z,10.82
2023-01-09T04:19:34.134Z,9.43
2023-01-09T04:22:36.796Z,10.07
2023-01-09T04:25:39.508Z,9.97
2023-01-09T04:28:42.161Z,9.50
2023-01-09T04:31:45.059Z,8.52
2023-01-09T04:34:49.170Z,10.00
2023-01-09T04:37:51.922Z,9.57
2023-01-09T04:40:54.659Z,9.83
2023-01-09T04:43:57.256Z,8.73
2023-01-09T04:46:59.875Z,9.23
2023-01-09T04:50:05.250Z,8.82
2023-01-09T04:53:08.041Z,9.10
2023-01-09T04:56:10.726Z,11.80
2023-01-09T04:59:13.639Z,10.35
2023-01-09T05:02:16.493Z,8.57
2023-01-09T05:05:20.574Z,7.22
2023-01-09T05:08:23.247Z,9.20
2023-01-09T05:11:26.410Z,9.13
2023-01-09T05:14:29.224Z,11.20
2023-01-09T05:17:31.865Z,10.02
2023-01-09T05:20:37.249Z,8.73
2023-01-09T05:23:40.177Z,9.75
2023-01-09T05:26:42.872Z,9.63
2023-01-09T05:29:45.666Z,10.13
2023-01-09T05:32:48.334Z,11.00
2023-01-09T05:35:54.444Z,10.30
2023-01-09T05:39:02.544Z,9.55
2023-01-09T05:42:05.339Z,10.00
2023-01-09T05:45:09.335Z,11.30
2023-01-09T05:48:12.053Z,10.88
2023-01-09T05:51:17.171Z,11.02
2023-01-09T05:54:19.935Z,10.32
2023-01-09T05:57:22.657Z,11.47
2023-01-09T06:00:25.544Z,11.55
2023-01-09T06:03:28.220Z,13.20
2023-01-09T06:06:32.264Z,10.63
2023-01-09T06:09:34.999Z,10.50
2023-01-09T06:12:37.796Z,11.90
2023-01-09T06:15:40.710Z,12.35
2023-01-09T06:18:43.430Z,13.55
2023-01-09T06:21:47.777Z,10.75
2023-01-09T06:24:50.437Z,11.88
2023-01-09T06:27:53.259Z,10.70
2023-01-09T06:30:56.038Z,11.73
2023-01-09T06:33:58.877Z,12.55
2023-01-09T06:37:02.920Z,12.50
2023-01-09T06:40:06.910Z,11.77
2023-01-09T06:43:09.660Z,11.63
2023-01-09T06:46:12.407Z,12.30
2023-01-09T06:49:15.220Z,12.50
2023-01-09T06:52:19.945Z,13.45
2023-01-09T06:55:22.773Z,12.05
2023-01-09T06:58:25.528Z,13.37
2023-01-09T07:01:28.825Z,9.32
2023-01-09T07:04:31.768Z,11.38
2023-01-09T07:07:35.838Z,12.77
2023-01-09T07:10:38.590Z,11.00
2023-01-09T07:13:41.335Z,12.57
2023-01-09T07:16:44.088Z,12.23
2023-01-09T07:19:46.903Z,13.20
2023-01-09T07:22:52.036Z,11.32
2023-01-09T07:25:54.767Z,11.68
2023-01-09T07:28:59.533Z,13.07
2023-01-09T07:32:02.431Z,10.68
2023-01-09T07:35:05.938Z,12.18
2023-01-09T07:38:10.108Z,11.77
2023-01-09T07:41:12.738Z,12.18
2023-01-09T07:44:15.661Z,11.70
2023-01-09T07:47:19.017Z,12.82
2023-01-09T07:50:21.947Z,10.95
2023-01-09T07:53:27.869Z,10.68
2023-01-09T07:56:30.600Z,12.05
2023-01-09T07:59:33.411Z,9.57
2023-01-09T08:02:36.422Z,11.43
2023-01-09T08:05:39.223Z,11.60
2023-01-09T08:08:43.470Z,9.05
2023-01-09T08:11:46.346Z,11.20
2023-01-09T08:14:49.306Z,10.00
2023-01-09T08:17:52.229Z,13.02
2023-01-09T08:20:57.766Z,10.02
2023-01-09T08:24:02.788Z,10.70
2023-01-09T08:27:06.149Z,10.70
2023-01-09T08:30:11.031Z,10.47
2023-01-09T08:33:13.938Z,10.52
2023-01-09T08:36:17.496Z,9.68
2023-01-09T08:39:21.627Z,9.73
2023-01-09T08:42:42.837Z,10.45
2023-01-09T08:46:04.206Z,9.30
2023-01-09T08:49:09.620Z,11.38
2023-01-09T08:52:13.729Z,10.23
2023-01-09T08:55:17.854Z,9.55
2023-01-09T08:58:20.571Z,10.57
2023-01-09T09:01:23.240Z,10.67
2023-01-09T09:04:26.084Z,10.98
2023-01-09T09:07:28.863Z,9.25
2023-01-09T09:10:33.426Z,10.52
2023-01-09T09:13:36.943Z,11.90
2023-01-09T09:16:39.597Z,11.23
2023-01-09T09:19:42.818Z,10.93
2023-01-09T09:22:46.519Z,11.90
2023-01-09T09:25:53.424Z,10.57
2023-01-09T09:28:56.409Z,11.32
2023-01-09T09:32:01.063Z,10.50
2023-01-09T09:35:04.658Z,11.63
2023-01-09T09:38:07.823Z,11.43
2023-01-09T09:41:45.194Z,11.00
2023-01-09T09:45:06.493Z,10.65
2023-01-09T09:48:22.886Z,10.57
2023-01-09T09:51:46.922Z,10.02
2023-01-09T09:54:52.261Z,11.07
2023-01-09T09:57:58.618Z,9.65
2023-01-09T10:01:02.636Z,10.68
2023-01-09T10:04:11.441Z,9.30
2023-01-09T10:07:22.598Z,13.20
2023-01-09T10:10:31.712Z,11.82
2023-01-09T10:13:54.349Z,11.98
2023-01-09T10:17:15.396Z,11.43
2023-01-09T10:20:50.479Z,12.03
2023-01-09T10:24:22.522Z,12.23
2023-01-09T10:27:43.613Z,12.90
2023-01-09T10:30:52.723Z,11.48
2023-01-09T10:34:07.874Z,11.90
2023-01-09T10:37:13.734Z,11.20
2023-01-09T10:40:23.025Z,11.55
2023-01-09T10:43:35.048Z,13.23
2023-01-09T10:46:46.919Z,13.65
2023-01-09T10:49:51.674Z,12.30
2023-01-09T10:52:56.691Z,11.63
2023-01-09T10:56:05.766Z,13.13
2023-01-09T10:59:11.878Z,14.05
2023-01-09T11:02:27.403Z,12.15
2023-01-09T11:05:33.069Z,12.15
2023-01-09T11:08:46.777Z,11.00
2023-01-09T11:11:52.941Z,11.75
2023-01-09T11:14:56.723Z,12.15
2023-01-09T11:18:24.463Z,11.95
2023-01-09T11:21:35.734Z,12.13
2023-01-09T11:24:42.181Z,9.63
2023-01-09T11:28:03.300Z,12.95
2023-01-09T11:31:06.045Z,12.40
2023-01-09T11:34:16.582Z,12.02
2023-01-09T11:37:26.041Z,11.55
2023-01-09T11:40:32.029Z,11.23
2023-01-09T11:43:38.233Z,12.30
2023-01-09T11:46:44.039Z,12.48
2023-01-09T11:49:51.282Z,12.32
2023-01-09T11:53:13.337Z,12.98
2023-01-09T11:56:17.238Z,11.40
2023-01-09T11:59:22.048Z,13.63
2023-01-09T12:02:44.754Z,12.50
2023-01-09T12:05:57.179Z,14.13
2023-01-09T12:09:02.918Z,14.70
2023-01-09T12:12:18.496Z,11.47
2023-01-09T12:15:33.148Z,11.68
2023-01-09T12:18:57.264Z,12.98
2023-01-09T12:22:11.585Z,12.40
2023-01-09T12:25:25.858Z,13.32
2023-01-09T12:28:48.040Z,14.40
2023-01-09T12:32:18.354Z,14.65
2023-01-09T12:35:32.459Z,11.93
2023-01-09T12:38:49.104Z,15.10
2023-01-09T12:42:10.296Z,14.50
2023-01-09T12:45:34.014Z,13.00
2023-01-09T12:49:08.238Z,13.32
2023-01-09T12:52:17.433Z,13.63
2023-01-09T12:55:25.522Z,13.23
2023-01-09T12:58:44.803Z,13.30
2023-01-09T13:01:50.913Z,14.73
2023-01-09T13:04:59.725Z,14.23
2023-01-09T13:08:15.349Z,12.85
2023-01-09T13:11:27.259Z,14.80
2023-01-09T13:14:44.510Z,11.07
2023-01-09T13:17:53.212Z,13.80
2023-01-09T13:20:56.798Z,13.73
2023-01-09T13:24:07.941Z,15.32
2023-01-09T13:27:17.867Z,15.85
2023-01-09T13:30:37.115Z,18.58
2023-01-09T13:33:44.824Z,14.10
2023-01-09T13:36:50.144Z,13.25
2023-01-09T13:39:58.541Z,12.15
2023-01-09T13:43:04.562Z,12.00
2023-01-09T13:46:07.486Z,13.85
2023-01-09T13:49:39.910Z,14.70
2023-01-09T13:52:43.433Z,13.80
2023-01-09T13:56:05.488Z,12.55
2023-01-09T13:59:27.444Z,14.70
2023-01-09T14:02:56.130Z,12.88
2023-01-09T14:06:24.380Z,13.77
2023-01-09T14:09:27.285Z,12.00
2023-01-09T14:12:38.000Z,11.98
2023-01-09T14:15:46.538Z,11.23
2023-01-09T14:18:52.752Z,11.98
2023-01-09T14:21:58.171Z,10.60
2023-01-09T14:25:09.166Z,11.90
2023-01-09T14:28:23.193Z,13.27
2023-01-09T14:31:31.856Z,11.85
2023-01-09T14:34:37.409Z,12.05
2023-01-09T14:37:41.144Z,11.00
2023-01-09T14:40:52.503Z,10.00
2023-01-09T14:44:00.940Z,12.45
2023-01-09T14:47:11.743Z,12.98
2023-01-09T14:50:18.869Z,14.20
2023-01-09T14:53:26.203Z,10.17
2023-01-09T14:56:31.105Z,9.38
2023-01-09T14:59:34.159Z,12.35
2023-01-09T15:02:39.685Z,13.07
2023-01-09T15:05:45.767Z,12.88
2023-01-09T15:08:56.475Z,11.87
2023-01-09T15:12:04.545Z,12.35
2023-01-09T15:15:13.371Z,10.88
2023-01-09T15:18:23.293Z,13.48
2023-01-09T15:21:27.387Z,11.27
2023-01-09T15:24:32.495Z,11.97
2023-01-09T15:27:35.157Z,13.40
2023-01-09T15:30:37.912Z,12.35
2023-01-09T15:33:44.596Z,13.38
2023-01-09T15:36:49.336Z,13.20
2023-01-09T15:39:52.624Z,12.33
2023-01-09T15:42:57.453Z,10.88
2023-01-09T15:46:01.091Z,12.82
2023-01-09T15:49:05.332Z,12.57
2023-01-09T15:52:13.314Z,13.23
2023-01-09T15:55:25.587Z,13.77
2023-01-09T15:58:32.347Z,14.80
2023-01-09T16:01:37.518Z,14.75
2023-01-09T16:04:42.033Z,13.68
2023-01-09T16:07:45.848Z,14.45
2023-01-09T16:10:53.827Z,17.87
2023-01-09T16:14:01.665Z,15.30
2023-01-09T16:17:07.497Z,15.85
2023-01-09T16:20:24.628Z,18.55
2023-01-09T16:23:32.016Z,14.13
2023-01-09T16:26:35.287Z,15.53
2023-01-09T16:29:45.178Z,13.73
2023-01-09T16:32:51.375Z,13.45
2023-01-09T16:35:58.487Z,13.77
2023-01-09T16:39:03.075Z,14.95
2023-01-09T16:42:27.317Z,12.57
2023-01-09T16:45:33.517Z,12.23
2023-01-09T16:48:38.435Z,9.68
2023-01-09T16:51:43.714Z,13.77
2023-01-09T16:54:47.431Z,13.18
2023-01-09T16:57:50.219Z,10.60
2023-01-09T17:00:53.367Z,12.23
2023-01-09T17:03:56.058Z,10.93
2023-01-09T17:07:01.717Z,12.00
2023-01-09T17:10:05.918Z,13.05
2023-01-09T17:13:08.654Z,13.43
2023-01-09T17:16:11.690Z,11.38
2023-01-09T17:19:18.815Z,11.98
2023-01-09T17:22:22.984Z,10.60
2023-01-09T17:25:44.429Z,11.57
2023-01-09T17:28:50.460Z,11.13
2023-01-09T17:31:53.692Z,12.57
2023-01-09T17:34:56.577Z,12.15
2023-01-09T17:38:00.636Z,11.18
2023-01-09T17:41:03.323Z,11.23
2023-01-09T17:44:06.139Z,9.93
2023-01-09T17:47:14.668Z,10.98
2023-01-09T17:50:20.103Z,9.82
2023-01-09T17:53:25.445Z,10.85
2023-01-09T17:56:32.526Z,10.50
2023-01-09T17:59:35.913Z,11.00
2023-01-09T18:02:38.900Z,9.32
2023-01-09T18:05:42.953Z,12.25
2023-01-09T18:08:47.440Z,18.05
2023-01-09T18:11:50.193Z,12.20
2023-01-09T18:14:54.081Z,12.53
2023-01-09T18:17:57.016Z,12.15
2023-01-09T18:20:59.701Z,14.35
2023-01-09T18:24:04.626Z,13.30
2023-01-09T18:27:07.561Z,12.07
2023-01-09T18:30:11.816Z,13.43
2023-01-09T18:33:15.767Z,12.13
2023-01-09T18:36:19.954Z,14.85
2023-01-09T18:39:24.253Z,14.15
2023-01-09T18:42:27.110Z,14.43
2023-01-09T18:45:31.806Z,12.60
2023-01-09T18:48:34.645Z,13.18
2023-01-09T18:51:37.509Z,14.18
2023-01-09T18:54:42.823Z,14.25
2023-01-09T18:57:45.540Z,13.90
2023-01-09T19:00:50.240Z,14.70
2023-01-09T19:03:53.339Z,14.23
2023-01-09T19:06:57.172Z,14.07
2023-01-09T19:10:01.669Z,14.02
2023-01-09T19:13:04.438Z,13.70
2023-01-09T19:16:08.703Z,13.30
2023-01-09T19:19:11.578Z,13.32
2023-01-09T19:22:15.180Z,12.13
2023-01-09T19:25:19.237Z,11.75
2023-01-09T19:28:22.414Z,12.48
2023-01-09T19:31:28.438Z,12.67
2023-01-09T19:34:31.860Z,12.65
2023-01-09T19:37:35.289Z,13.32
2023-01-09T19:40:39.304Z,12.13
2023-01-09T19:43:42.203Z,12.05
2023-01-09T19:46:44.966Z,11.77
2023-01-09T19:49:47.612Z,11.48
2023-01-09T19:52:51.015Z,12.50
2023-01-09T19:55:55.090Z,14.13
2023-01-09T19:59:00.160Z,11.55
2023-01-09T20:02:03.549Z,11.93
2023-01-09T20:05:07.587Z,13.02
2023-01-09T20:08:11.665Z,11.93
2023-01-09T20:11:16.523Z,12.18
2023-01-09T20:14:19.835Z,11.38
2023-01-09T20:17:22.463Z,10.43
2023-01-09T20:20:25.508Z,11.70
2023-01-09T20:23:28.918Z,11.85
2023-01-09T20:26:33.965Z,11.80
2023-01-09T20:29:36.955Z,12.35
2023-01-09T20:32:40.429Z,11.90
2023-01-09T20:35:43.276Z,10.98
2023-01-09T20:38:45.940Z,9.63
2023-01-09T20:41:50.167Z,11.73
2023-01-09T20:44:53.006Z,11.48
2023-01-09T20:47:55.682Z,11.23
2023-01-09T20:51:04.147Z,10.25
2023-01-09T20:54:07.201Z,11.05
2023-01-09T20:57:11.164Z,11.75
2023-01-09T21:00:15.067Z,11.10
2023-01-09T21:03:17.731Z,11.83
2023-01-09T21:06:22.451Z,12.52
2023-01-09T21:09:26.130Z,10.68
2023-01-09T21:12:39.041Z,10.45
2023-01-09T21:15:41.751Z,11.63
2023-01-09T21:18:44.488Z,11.87
2023-01-09T21:21:47.143Z,11.80
2023-01-09T21:24:50.352Z,10.68
2023-01-09T21:27:54.441Z,11.73
2023-01-09T21:30:57.155Z,11.55
2023-01-09T21:34:00.393Z,10.80
2023-01-09T21:37:03.112Z,11.40
2023-01-09T21:40:13.153Z,10.52
2023-01-09T21:43:43.818Z,10.38
2023-01-09T21:46:52.342Z,11.18
2023-01-09T21:49:55.030Z,10.67
2023-01-09T21:52:57.775Z,11.02
2023-01-09T21:56:02.910Z,9.98
2023-01-09T21:59:07.275Z,7.75
2023-01-09T22:02:12.005Z,8.75
2023-01-09T22:05:14.779Z,9.10
2023-01-09T22:08:17.455Z,8.82
2023-01-09T22:11:20.108Z,8.48
2023-01-09T22:14:24.151Z,8.68
2023-01-09T22:17:28.779Z,8.15
2023-01-09T22:20:31.474Z,8.30
2023-01-09T22:23:34.112Z,8.48
2023-01-09T22:26:36.963Z,8.38
2023-01-09T22:29:41.005Z,8.35
2023-01-09T22:32:43.853Z,8.73
2023-01-09T22:35:46.543Z,8.00
2023-01-09T22:38:49.248Z,8.63
2023-01-09T22:41:54.451Z,9.48
2023-01-09T22:44:58.603Z,9.25
2023-01-09T22:48:01.338Z,9.30
2023-01-09T22:51:05.736Z,8.70
2023-01-09T22:54:08.643Z,9.43
2023-01-09T22:57:11.431Z,8.35
2023-01-09T23:00:16.726Z,8.10
2023-01-09T23:03:20.349Z,9.45
2023-01-09T23:06:25.222Z,8.63
2023-01-09T23:09:28.062Z,8.15
2023-01-09T23:12:30.778Z,8.60
2023-01-09T23:15:34.917Z,9.50
2023-01-09T23:18:37.606Z,9.32
2023-01-09T23:21:40.381Z,8.53
2023-01-09T23:24:43.117Z,8.70
2023-01-09T23:27:46.078Z,8.63
2023-01-09T23:30:50.103Z,8.80
2023-01-09T23:33:52.802Z,8.48
2023-01-09T23:36:57.524Z,9.37
2023-01-09T23:40:00.331Z,9.45
2023-01-09T23:43:09.288Z,9.05
2023-01-09T23:46:13.400Z,9.15
2023-01-09T23:49:16.395Z,9.73
2023-01-09T23:52:19.113Z,9.20
2023-01-09T23:55:21.848Z,8.93
2023-01-09T23:58:24.922Z,8.98
